KHYW

Conway-Horry County Airport

Conway, South Carolina, USA
METAR KHYW 230815Z AUTO 00000KT 7SM CLR 11/11 A3043 RMK AO2
Observed Flight Rules
Feb-23 @ 08:15 UTC (14 minutes ago) Visual Flight Rules
Wind Visibility Clouds
Calm 7 miles
  • Clear skies
Temperatures Readings
Current 11°C / 52°F
Dewpoint 11°C / 52°F
Humidity 100%
Altimeter 30.43" Hg
Pressure 1030 hPa
Elevation 11
METAR KHYW 230815Z AUTO 00000KT 7SM CLR 11/11 A3043 RMK AO2
Observed Flight Rules
Feb-23 @ 08:15 UTC
(14 minutes ago)
VFR
Wind Visibility
Calm 7 miles
Clouds
  • Clear skies
Temperature Dewpoint
11°C / 52°F 11°C / 52°F
Humidity Altimeter Pressure
100% 30.43" Hg 1030 hPa